KRVS

Richard Lloyd Jones Jr Airport

Tulsa, Oklahoma, USA
KRVS 202323Z 2100/2124 13015KT P6SM SCT250 FM210100 12007KT P6SM BKN250 FM210700 10006KT P6SM -SHRA OVC080 FM211200 07007KT 5SM -RA BR OVC025
Issued Valid From Valid To
Apr-20 @ 23:23 UTC
(5 hours ago)
Apr-21 @ 00:00 UTC
(4 hours ago)
Apr-22 @ 00:00 UTC
(in 20 hours)
Expired Click to View Apr-21 @ 00:00 to Apr-21 @ 01:00
KRVS 202323Z 2100/2124 13015KT P6SM SCT250
Wind Visibility Clouds
130° at 15 knots Greater than 6 miles
  • Scattered at 25,000' AGL
From Apr-21 @ 01:00 to Apr-21 @ 07:00
FM210100 12007KT P6SM BKN250
Wind Visibility Clouds
120° at 7 knots Greater than 6 miles
  • Broken at 25,000' AGL
From Apr-21 @ 07:00 to Apr-21 @ 12:00
FM210700 10006KT P6SM -SHRA OVC080
Wind Visibility Clouds Conditions
100° at 6 knots Greater than 6 miles
  • Overcast at 8,000' AGL
  • Light Rain
From Apr-21 @ 12:00 to Apr-22 @ 00:00
FM211200 07007KT 5SM -RA BR OVC025
Wind Visibility Clouds Conditions
70° at 7 knots 5 miles
  • Overcast at 2,500' AGL
  • Light Rain
  • Mist
KRVS 202323Z 2100/2124 13015KT P6SM SCT250 FM210100 12007KT P6SM BKN250 FM210700 10006KT P6SM -SHRA OVC080 FM211200 07007KT 5SM -RA BR OVC025
Issued Apr-20 @ 23:23 UTC
(5 hours ago)
Valid From Apr-21 @ 00:00 UTC
(4 hours ago)
Valid To Apr-22 @ 00:00 UTC
(in 20 hours)
Apr-21 @ 00:00 - Apr-21 @ 01:00
Wind Visibility
130° at 15 knots Greater than 6 miles
Clouds
  • Scattered at 25,000' AGL
From Apr-21 @ 01:00 - Apr-21 @ 07:00
Wind Visibility
120° at 7 knots Greater than 6 miles
Clouds
  • Broken at 25,000' AGL
From Apr-21 @ 07:00 - Apr-21 @ 12:00
Wind Visibility
100° at 6 knots Greater than 6 miles
Clouds
  • Overcast at 8,000' AGL
Conditions
  • Light Rain
From Apr-21 @ 12:00 - Apr-22 @ 00:00
Wind Visibility
70° at 7 knots 5 miles
Clouds
  • Overcast at 2,500' AGL
Conditions
  • Light Rain
  • Mist